Plainview, TX

1:37 AM CST on February 22, 2018 (GMT -0600)
Hale County

Weather History for KPVW - May, 2013

Change the Weather History Date:

Saturday, May 25, 2013

  Actual Average Record
Temperature  
Mean Temperature 74 °F -  
Max Temperature 85 °F 84 °F 101 °F (1989)
Min Temperature 62 °F 57 °F 46 °F (1930)
Cooling Degree Days 8    
Growing Degree Days 24 (Base 50)    
Moisture  
Dew Point 58 °F    
Average Humidity 61    
Maximum Humidity 87    
Minimum Humidity 35    
Precipitation  
Precipitation 0.00 in - - ()
Sea Level Pressure  
Sea Level Pressure 30.07 in    
Wind  
Wind Speed 14 mph (South)    
Max Wind Speed 20 mph    
Max Gust Speed 29 mph    
Visibility 10 miles    
Events      
Averages and records for this station are not official NWS values.
T = Trace of Precipitation, MM = Missing Value Source: NWS Daily Summary

Daily Weather History Graph

Daily Weather History Graph

Search for Another Location

Airport or City:

Trip Planner

Search our weather history database for the weather conditions in past years. The results will help you decide how hot, cold, wet, or windy it might be!

Date:

Astronomy

May. 25, 2013 Rise Set
Actual Time 6:38 AM CDT 8:49 PM CDT
Civil Twilight 6:10 AM CDT 9:17 PM CDT
Nautical Twilight 5:35 AM CDT 9:52 PM CDT
Astronomical Twilight 4:58 AM CDT 10:29 PM CDT
Moon 9:39 PM CDT (5/25) 7:06 AM CDT (5/25)
Length of Visible Light 15h 07m
Length of Day
14h 10m
Full, 100% of the Moon is Illuminated
May 25
Full
May 31
Last Quarter
Jun 8
New
Jun 16
First Quarter
Jun 23
Full

Hourly Weather History & Observations

Time (CDT) Temp. Heat Index Dew Point Humidity Pressure Visibility Wind Dir Wind Speed Gust Speed Precip Events Conditions
12:15 AM 67.5 °F - 59.9 °F 77% 30.13 in 10.0 mi SSE 18.4 mph - N/A   Clear
12:35 AM 67.5 °F - 59.9 °F 77% 30.13 in 10.0 mi SSE 19.6 mph - N/A   Clear
12:55 AM 64.9 °F - 57.7 °F 77% 30.13 in 10.0 mi SSE 18.4 mph 23.0 mph N/A   Clear
1:15 AM 64.9 °F - 58.3 °F 79% 30.13 in 10.0 mi South 16.1 mph 23.0 mph N/A   Clear
1:35 AM 64.0 °F - 57.7 °F 80% 30.14 in 10.0 mi South 12.7 mph - N/A   Clear
1:55 AM 63.7 °F - 57.7 °F 81% 30.13 in 10.0 mi South 13.8 mph - N/A   Clear
2:15 AM 63.1 °F - 57.7 °F 83% 30.12 in 10.0 mi South 12.7 mph - N/A   Clear
2:35 AM 62.6 °F - 57.4 °F 83% 30.13 in 10.0 mi South 9.2 mph - N/A   Clear
2:55 AM 62.6 °F - 57.7 °F 84% 30.11 in 10.0 mi South 9.2 mph - N/A   Clear
3:15 AM 62.6 °F - 58.1 °F 85% 30.12 in 10.0 mi South 9.2 mph - N/A   Mostly Cloudy
3:35 AM 63.0 °F - 58.3 °F 85% 30.13 in 10.0 mi South 12.7 mph - N/A   Overcast
3:55 AM 63.1 °F - 58.6 °F 85% 30.12 in 10.0 mi South 11.5 mph - N/A   Overcast
4:15 AM 63.1 °F - 59.2 °F 87% 30.11 in 10.0 mi South 12.7 mph - N/A   Overcast
4:35 AM 63.3 °F - 58.6 °F 85% 30.10 in 10.0 mi South 15.0 mph 20.7 mph N/A   Overcast
4:55 AM 63.1 °F - 58.6 °F 85% 30.10 in 10.0 mi South 15.0 mph - N/A   Overcast
5:15 AM 63.5 °F - 58.6 °F 84% 30.10 in 10.0 mi SSE 12.7 mph - N/A   Overcast
5:35 AM 63.3 °F - 58.6 °F 85% 30.10 in 10.0 mi SSE 13.8 mph - N/A   Overcast
5:55 AM 63.5 °F - 58.6 °F 84% 30.10 in 10.0 mi South 15.0 mph - N/A   Overcast
6:15 AM 63.7 °F - 58.1 °F 82% 30.10 in 10.0 mi South 18.4 mph 21.9 mph N/A   Overcast
6:35 AM 63.7 °F - 57.4 °F 80% 30.11 in 10.0 mi South 15.0 mph - N/A   Overcast
6:55 AM 63.7 °F - 57.6 °F 80% 30.12 in 10.0 mi South 10.4 mph 16.1 mph N/A   Overcast
7:15 AM 63.7 °F - 57.4 °F 80% 30.13 in 10.0 mi SSW 11.5 mph 16.1 mph N/A   Overcast
7:35 AM 63.7 °F - 57.2 °F 79% 30.13 in 10.0 mi SSW 8.1 mph - N/A   Overcast
7:55 AM 64.8 °F - 58.1 °F 79% 30.14 in 10.0 mi South 10.4 mph - N/A   Overcast
8:15 AM 64.9 °F - 57.7 °F 77% 30.14 in 10.0 mi SSW 9.2 mph - N/A   Overcast
8:35 AM 65.5 °F - 57.6 °F 76% 30.14 in 10.0 mi South 11.5 mph - N/A   Overcast
8:55 AM 67.5 °F - 59.4 °F 75% 30.13 in 10.0 mi South 9.2 mph - N/A   Overcast
9:15 AM 67.5 °F - 59.2 °F 75% 30.13 in 10.0 mi South 10.4 mph - N/A   Overcast
9:35 AM 68.4 °F - 59.9 °F 74% 30.13 in 10.0 mi South 10.4 mph - N/A   Overcast
9:55 AM 70.0 °F - 60.1 °F 71% 30.13 in 10.0 mi SSW 6.9 mph - N/A   Overcast
10:15 AM 70.0 °F - 59.2 °F 68% 30.12 in 10.0 mi SSW 8.1 mph - N/A   Overcast
10:35 AM 70.0 °F - 57.7 °F 65% 30.12 in 10.0 mi South 10.4 mph - N/A   Mostly Cloudy
10:55 AM 71.4 °F - 58.1 °F 63% 30.11 in 10.0 mi South 10.4 mph - N/A   Scattered Clouds
11:15 AM 75.2 °F - 59.7 °F 58% 30.11 in 10.0 mi South 12.7 mph 17.3 mph N/A   Scattered Clouds
11:35 AM 75.2 °F - 58.8 °F 57% 30.11 in 10.0 mi SSE 10.4 mph 16.1 mph N/A   Clear
11:55 AM 75.2 °F - 56.3 °F 52% 30.11 in 10.0 mi South 12.7 mph 18.4 mph N/A   Clear
12:15 PM 75.7 °F - 56.8 °F 52% 30.11 in 10.0 mi SSE 12.7 mph 18.4 mph N/A   Clear
12:35 PM 77.5 °F - 57.4 °F 50% 30.10 in 10.0 mi SSE 12.7 mph 18.4 mph N/A   Clear
12:55 PM 77.5 °F - 57.0 °F 49% 30.10 in 10.0 mi South 12.7 mph 20.7 mph N/A   Clear
1:15 PM 79.2 °F - 57.9 °F 48% 30.09 in 10.0 mi South 17.3 mph 23.0 mph N/A   Clear
1:35 PM 80.1 °F 80.4 °F 57.2 °F 45% 30.09 in 10.0 mi South 13.8 mph 19.6 mph N/A   Clear
1:55 PM 80.1 °F 80.4 °F 57.0 °F 45% 30.08 in 10.0 mi South 15.0 mph 25.3 mph N/A   Scattered Clouds
2:15 PM 81.1 °F 81.0 °F 56.3 °F 42% 30.07 in 10.0 mi South 13.8 mph 28.8 mph N/A   Clear
2:35 PM 80.8 °F 80.6 °F 55.2 °F 41% 30.06 in 10.0 mi SSE 12.7 mph 19.6 mph N/A   Clear
2:55 PM 82.4 °F 81.7 °F 55.0 °F 39% 30.06 in 10.0 mi South 12.7 mph 18.4 mph N/A   Clear
3:15 PM 82.4 °F 81.7 °F 54.9 °F 39% 30.04 in 10.0 mi SE 12.7 mph 19.6 mph N/A   Clear
3:35 PM 82.8 °F 81.7 °F 54.3 °F 37% 30.04 in 10.0 mi SSE 15.0 mph 19.6 mph N/A   Clear
3:55 PM 82.8 °F 81.7 °F 54.1 °F 37% 30.03 in 10.0 mi South 11.5 mph 20.7 mph N/A   Clear
4:15 PM 83.7 °F 82.5 °F 54.7 °F 37% 30.02 in 10.0 mi South 10.4 mph 18.4 mph N/A   Clear
4:35 PM 83.8 °F 82.4 °F 53.8 °F 35% 30.01 in 10.0 mi SSE 13.8 mph 19.6 mph N/A   Clear
4:55 PM 85.1 °F 83.6 °F 54.9 °F 35% 30.00 in 10.0 mi South 16.1 mph 20.7 mph N/A   Clear
5:15 PM 84.7 °F 83.3 °F 54.5 °F 35% 29.99 in 10.0 mi South 13.8 mph 21.9 mph N/A   Clear
5:35 PM 83.8 °F 82.6 °F 54.1 °F 36% 29.99 in 10.0 mi South 17.3 mph 23.0 mph N/A   Clear
5:55 PM 83.7 °F 82.4 °F 54.3 °F 36% 29.98 in 10.0 mi SSE 13.8 mph 19.6 mph N/A   Clear
6:15 PM 84.9 °F 83.4 °F 54.7 °F 35% 29.97 in 10.0 mi SSE 16.1 mph 21.9 mph N/A   Clear
6:35 PM 82.9 °F 81.9 °F 54.1 °F 37% 29.97 in 10.0 mi South 12.7 mph - N/A   Clear
6:55 PM 82.6 °F 81.7 °F 54.5 °F 38% 29.98 in 10.0 mi South 16.1 mph - N/A   Clear
7:15 PM 81.5 °F 81.0 °F 55.0 °F 40% 29.97 in 10.0 mi South 17.3 mph - N/A   Clear
7:35 PM 81.3 °F 81.0 °F 55.8 °F 41% 29.97 in 10.0 mi South 16.1 mph - N/A   Clear
7:55 PM 80.1 °F 80.2 °F 55.9 °F 43% 29.98 in 10.0 mi South 15.0 mph - N/A   Clear
8:15 PM 80.1 °F 80.5 °F 57.6 °F 46% 29.99 in 10.0 mi South 13.8 mph - N/A   Clear
8:35 PM 80.1 °F 80.7 °F 58.6 °F 48% 30.00 in 10.0 mi South 10.4 mph - N/A   Clear
8:55 PM 77.5 °F - 57.6 °F 50% 30.02 in 10.0 mi South 9.2 mph - N/A   Clear
9:15 PM 77.5 °F - 58.3 °F 51% 30.02 in 10.0 mi South 9.2 mph - N/A   Clear
9:35 PM 77.5 °F - 59.2 °F 53% 30.02 in 10.0 mi South 9.2 mph - N/A   Clear
9:55 PM 75.9 °F - 58.8 °F 55% 30.01 in 10.0 mi SSE 12.7 mph - N/A   Clear
10:15 PM 75.2 °F - 58.8 °F 57% 30.02 in 10.0 mi SSE 15.0 mph - N/A   Clear
10:35 PM 75.2 °F - 59.4 °F 58% 30.04 in 10.0 mi SSE 11.5 mph - N/A   Clear
10:55 PM 75.2 °F - 59.9 °F 59% 30.05 in 10.0 mi SSE 11.5 mph - N/A   Clear
11:15 PM 75.2 °F - 61.0 °F 61% 30.05 in 10.0 mi SSE 15.0 mph 19.6 mph N/A   Clear
11:35 PM 75.2 °F - 62.2 °F 64% 30.03 in 10.0 mi SSE 18.4 mph - N/A   Clear
11:55 PM 75.2 °F - 63.1 °F 66% 30.01 in 10.0 mi SSE 18.4 mph 26.5 mph N/A   Clear